AirNav   Everest Fuels
 
 2001 users online  

IA46 Wayne County Hospital Heliport
Corydon, Iowa, USA

GOING TO CORYDON?


FAA INFORMATION EFFECTIVE 02 JANUARY 2020

Location

FAA Identifier: IA46
Lat/Long: 40-45-14.3300N 093-18-37.9200W
40-45.238833N 093-18.632000W
40.7539806,-93.3105333
(estimated)
Elevation: 1093 ft. / 333 m (estimated)
Variation: 04E (1990)
Time zone: UTC -6 (UTC -5 during Daylight Saving Time)
Zip code: 50060

Heliport Operations

Heliport use: Private use, MEDICAL USE.
Activation date: 04/1991
Control tower: no
ARTCC: CHICAGO CENTER
FSS: FORT DODGE FLIGHT SERVICE STATION
Attendance: UNATNDD
Wind indicator: yes
Segmented circle: yes

Heliport Communications

WX AWOS-3 at CNC (16 nm N): 125.525 (641-774-5645)
WX AWOS-3 at TVK (19 nm E): 123.775 (641-437-1213)

Nearby radio navigation aids

VOR radial/distance  VOR name  Freq  Var
LMNr065/31.4LAMONI VOR/DME116.7007E

Heliport Services

Runway Information

Helipad H1

Dimensions: 35 x 35 ft. / 11 x 11 m
Surface: concrete
Latitude: 40-45.238833N
Longitude: 093-18.632000W
Elevation: 1093.0 ft.
Traffic pattern: leftleft

Heliport Ownership and Management from official FAA records

Ownership: Publicly-owned
Owner: WAYNE CO. HOSPITAL
417 S. EAST STREET
CORYDON, IA 50060
Phone 641-872-2260
Manager: DAREN RELPH
417 S. EAST STREET
CORYDON, IA 50060
Phone 641-872-5258
ADDITIONAL CONTACT: JOSH HYSELL 641-872-2260 EXT 5338 JHYSELL@WAYNECOUNTYHOSPITAL.ORG

Additional Remarks

A52-H1 20 FT BLDG 40 FT WEST; 40 FT PLINE (MARKED) 60 FT SOUTH.
OWNER DESIRES ARPT NOT BE CHARTED.
FOR CD CTC CHICAGO ARTCC AT 630-906-8921.

Instrument Procedures

There are no published instrument procedures at IA46.

Some nearby airports with instrument procedures:

KCNC - Chariton Municipal Airport (16 nm N)
KTVK - Centerville Municipal Airport (19 nm E)
I75 - Osceola Municipal Airport (25 nm NW)
KLWD - Lamoni Municipal Airport (28 nm W)
4C8 - Albia Municipal Airport (29 nm NE)
 
Loc | Ops | Rwys | IFR | FBO | Links
Com | Nav | Svcs | Stats | Notes
Area around IA46 (Wayne County Hospital Heliport)
 
Road maps at: MapQuest Bing Google
 
Aerial photo
No photo
 
Sectional chart

 
Airport distance calculator
Flying to Wayne County Hospital Heliport? Find the distance to fly.

From to IA46

Sunrise and sunset
Times for 22-Jan-2020
 Local
(UTC-6)
 Zulu
(UTC)
Morning civil twilight07:0313:03
Sunrise07:3313:33
Sunset17:1723:17
Evening civil twilight17:4723:47

Current date and time
Zulu (UTC)  22-Jan-2020 19:36:40
Local (UTC-6)  22-Jan-2020 13:36:40
 
METAR
KCNC 
16nm N 
221915Z AUTO 16014KT 3/4SM -SN BKN007 BKN013 00/00 A2993 RMK AO2
KTVK 
19nm E 
221915Z AUTO 13011KT 1/2SM SN BKN002 BKN010 BKN080 00/00 A2998 RMK AO2
KI75 
25nm NW 
221915Z AUTO 16013KT 4SM -SN OVC006 01/00 A2992 RMK AO2 T00060000
KLWD 
28nm W 
221919Z AUTO 16013G22KT 1 1/4SM -SN BR OVC005 M01/M02 A2991 RMK AO2 P0001 T10061022
TAF
KOTM 
44nm NE 
221739Z 2218/2318 18014KT 5SM -FZRASN OVC045 FM222000 17013KT 1SM -SNRA OVC009 FM222200 16013KT 2SM -SN BR OVC008 FM230700 17009KT 1SM -SN BR OVC003 FM231200 16007KT 1/2SM FG OVC003 FM231500 16005KT 1/2SM -SN FG OVC003
KDSM 
49nm N 
221739Z 2218/2318 17012KT 3/4SM -SN OVC010 FM221900 17012KT 2SM -SN OVC008 FM230200 16009KT 2SM -SN BR OVC008 FM230400 16008KT 2SM BR OVC003 FM231000 17004KT 1/2SM FG OVC003 FM231300 17004KT 1/4SM FG OVC003 FM231600 VRB03KT 3/4SM -SN BR OVC003
NOTAMs
Click for the latest NOTAMs
NOTAMs are issued by the DoD/FAA and will open in a separate window not controlled by AirNav.

 

 
 

Would you like to see your business listed on this page?

 If your business provides an interesting product or service to pilots, flight crews, aircraft, or users of the Wayne County Hospital Heliport, you should consider listing it here.  To start the listing process, click on the button below
 
Add a business
 

Other Pages about Wayne County Hospital Heliport

Update a link
 
Copyright © AirNav, LLC. All rights reserved. Privacy Policy  Contact